Ofarrell, Texas
Current Conditions -  °F | °C
As of 1:53 PM on Wednesday 26 Nov 2014 (Local Time) from KTXK Reporting Station
Clear Clear  
Wind Chill: 64°   Ceiling: Unl
Heat Index: 64°   Visibility: 10mi
Dew Point: 32°   Wind: 17mph
Humidity: 30%   Direction: 320°NW
Pressure: 30.1"   Gusts: NA
Location:  33.0888°N, 94.1627°W
Report Text: KTXK 261953Z 32015KT 10SM CLR 18/00 A3010 RMK AO2 SLP190 T01780000
Loading
Personal Weather Stations






























Interactive Weather Map New forecast layout! Learn more

10-Day Weather Forecast

Advertisements
Track Severe Weather on mobile